Time;durP1;ratioP1;P1;durP2;ratioP2;P2;SDS_P1;SDS_P2;PMS_P1;PMS_P2;Temp;Humidity;BMP_temperature;BMP_pressure;BME280_temperature;BME280_humidity;BME280_pressure;Samples;Min_cycle;Max_cycle;Signal;HPM_P1;HPM_P2
2022/03/19 00:01:01;;;;;;;82.05;51.13;;;;;;;2.39;61.35;102849.94;2728022;87;21088;-69
2022/03/19 00:05:03;;;;;;;76.22;51.00;;;;;;;2.36;61.88;102844.28;2727452;87;21028;-69
2022/03/19 00:09:07;;;;;;;81.15;52.73;;;;;;;2.27;62.33;102847.83;2727510;87;21536;-69
2022/03/19 00:13:14;;;;;;;92.47;51.13;;;;;;;2.30;62.02;102842.98;2727599;87;21028;-69
2022/03/19 00:17:12;;;;;;;83.07;50.67;;;;;;;2.32;62.39;102846.92;2725848;87;22035;-69
2022/03/19 00:21:15;;;;;;;86.97;54.42;;;;;;;2.32;62.09;102850.87;2727449;87;21019;-69
2022/03/19 00:25:16;;;;;;;84.83;52.15;;;;;;;2.31;62.24;102847.81;2727502;87;21056;-69
2022/03/19 00:29:18;;;;;;;86.95;53.05;;;;;;;2.31;62.52;102850.44;2726959;86;21044;-68
2022/03/19 00:33:20;;;;;;;81.92;51.40;;;;;;;2.07;64.01;102849.23;2727403;87;21584;-68
2022/03/19 00:37:23;;;;;;;89.87;53.13;;;;;;;1.92;64.72;102843.63;2727583;87;21072;-68
2022/03/19 00:41:24;;;;;;;91.10;54.38;;;;;;;1.99;64.60;102843.16;2727548;87;21044;-68
2022/03/19 00:45:28;;;;;;;93.20;51.95;;;;;;;2.04;65.11;102840.49;2727412;87;21019;-68
2022/03/19 00:49:30;;;;;;;87.33;51.88;;;;;;;2.20;64.52;102840.00;2727460;87;21540;-69
2022/03/19 00:53:32;;;;;;;88.82;54.00;;;;;;;2.38;64.38;102834.63;2727523;87;20985;-68
2022/03/19 00:57:42;;;;;;;95.85;54.93;;;;;;;2.60;64.41;102838.42;2727786;86;21008;-68
2022/03/19 01:01:44;;;;;;;87.65;52.80;;;;;;;2.63;64.00;102830.94;2727325;87;21036;-68
2022/03/19 01:05:46;;;;;;;84.10;52.50;;;;;;;2.55;65.08;102833.62;2728178;86;21009;-68
2022/03/19 01:09:47;;;;;;;74.00;47.30;;;;;;;2.42;65.15;102838.98;2728047;87;21549;-68
2022/03/19 01:13:54;;;;;;;88.12;53.28;;;;;;;2.40;65.64;102825.41;2728076;87;21040;-68
2022/03/19 01:17:55;;;;;;;83.67;55.50;;;;;;;2.43;66.29;102821.44;2728325;87;21564;-68
2022/03/19 01:21:57;;;;;;;99.13;59.25;;;;;;;2.46;67.92;102825.39;2728180;86;20990;-69
2022/03/19 01:25:59;;;;;;;81.42;50.98;;;;;;;2.38;69.50;102821.92;2728190;86;21052;-68
2022/03/19 01:30:01;;;;;;;95.40;58.52;;;;;;;2.36;70.39;102820.64;2728044;86;21009;-68
2022/03/19 01:34:02;;;;;;;84.20;56.55;;;;;;;2.34;70.56;102819.75;2728019;87;21043;-68
2022/03/19 01:38:05;;;;;;;91.92;61.30;;;;;;;2.38;71.42;102816.24;2728295;86;21020;-68
2022/03/19 01:42:06;;;;;;;91.87;57.88;;;;;;;2.38;71.19;102817.55;2727648;87;21020;-68
2022/03/19 01:46:08;;;;;;;93.60;53.63;;;;;;;2.46;71.46;102807.42;2728164;86;21045;-68
2022/03/19 01:50:11;;;;;;;93.78;56.95;;;;;;;2.50;70.97;102811.34;2728114;86;21552;-68
2022/03/19 01:54:13;;;;;;;101.02;61.33;;;;;;;2.46;71.03;102809.63;2728098;86;21642;-68
2022/03/19 01:58:15;;;;;;;94.85;63.73;;;;;;;2.57;70.82;102802.52;2728270;87;21077;-69
2022/03/19 02:02:17;;;;;;;100.38;62.33;;;;;;;2.61;71.63;102808.63;2727764;87;21005;-68
2022/03/19 02:06:22;;;;;;;101.10;62.48;;;;;;;2.75;71.04;102806.30;2726916;86;21647;-69
2022/03/19 02:10:24;;;;;;;91.45;58.00;;;;;;;2.86;70.38;102792.64;2727496;87;21033;-68
2022/03/19 02:14:26;;;;;;;88.85;55.40;;;;;;;2.92;70.62;102791.72;2727442;87;21101;-68
2022/03/19 02:18:28;;;;;;;102.55;60.52;;;;;;;2.90;70.51;102792.17;2727416;87;21044;-68
2022/03/19 02:22:30;;;;;;;88.00;55.70;;;;;;;2.94;70.68;102788.17;2727334;87;21036;-68
2022/03/19 02:26:32;;;;;;;94.17;54.93;;;;;;;2.96;70.84;102783.80;2727472;87;21079;-68
2022/03/19 02:30:37;;;;;;;82.05;55.45;;;;;;;2.95;70.74;102785.11;2727308;87;21855;-69
2022/03/19 02:34:39;;;;;;;112.05;54.63;;;;;;;3.00;70.83;102786.81;2709794;86;21036;-69
2022/03/19 02:38:40;;;;;;;96.57;53.90;;;;;;;3.10;70.66;102782.77;2683674;88;21052;-68
2022/03/19 02:42:43;;;;;;;86.02;53.05;;;;;;;3.29;70.49;102782.99;2683779;88;21001;-69
2022/03/19 02:46:48;;;;;;;86.22;51.55;;;;;;;3.36;70.58;102783.80;2664027;88;21628;-68
2022/03/19 02:50:50;;;;;;;91.15;54.90;;;;;;;3.45;70.67;102782.83;2683849;88;21068;-69
2022/03/19 02:54:52;;;;;;;94.10;53.73;;;;;;;3.48;70.88;102781.93;2684033;88;21048;-68
2022/03/19 02:58:53;;;;;;;91.60;56.33;;;;;;;3.61;70.15;102790.54;2684143;88;21525;-68
2022/03/19 03:02:56;;;;;;;90.62;55.43;;;;;;;3.70;70.22;102791.30;2707921;87;21056;-69
2022/03/19 03:07:01;;;;;;;87.05;54.08;;;;;;;3.78;69.96;102785.94;2687995;87;21056;-69
2022/03/19 03:11:03;;;;;;;79.70;51.92;;;;;;;3.84;69.14;102784.53;2688025;87;21013;-69
2022/03/19 03:15:05;;;;;;;81.95;50.38;;;;;;;3.90;68.64;102785.33;2687965;88;21045;-69
2022/03/19 03:19:11;;;;;;;79.37;52.78;;;;;;;3.92;68.34;102784.42;2688128;88;21556;-68
2022/03/19 03:23:14;;;;;;;82.00;50.40;;;;;;;3.94;67.96;102781.78;2687885;88;21056;-68
2022/03/19 03:27:15;;;;;;;79.15;52.00;;;;;;;3.89;67.83;102786.22;2688154;87;21005;-68
2022/03/19 03:31:17;;;;;;;71.85;47.10;;;;;;;3.74;67.56;102787.30;2688125;88;21600;-68
2022/03/19 03:35:25;;;;;;;92.10;52.17;;;;;;;3.52;67.67;102788.43;2688166;87;21004;-69
2022/03/19 03:39:22;;;;;;;80.85;50.08;;;;;;;3.49;68.51;102784.52;2687629;87;21029;-68
2022/03/19 03:43:24;;;;;;;76.12;51.25;;;;;;;3.50;69.05;102788.05;2688196;88;21040;-68
2022/03/19 03:47:26;;;;;;;84.62;53.33;;;;;;;3.47;69.46;102783.67;2688189;88;21041;-68
2022/03/19 03:51:28;;;;;;;85.38;54.30;;;;;;;3.38;69.72;102774.59;2687956;88;20981;-68
2022/03/19 03:55:30;;;;;;;81.37;50.25;;;;;;;3.29;70.55;102771.16;2687913;88;21049;-68
2022/03/19 03:59:32;;;;;;;77.10;51.40;;;;;;;3.16;70.68;102769.57;2687906;88;21020;-68
2022/03/19 04:03:34;;;;;;;81.70;50.30;;;;;;;3.07;71.96;102770.53;2687983;88;21077;-68
2022/03/19 04:07:37;;;;;;;75.92;48.40;;;;;;;2.90;73.53;102774.63;2687963;88;21001;-69
2022/03/19 04:11:38;;;;;;;77.53;49.23;;;;;;;2.83;72.72;102765.07;2687863;87;21060;-69
2022/03/19 04:15:40;;;;;;;82.05;49.00;;;;;;;2.86;71.73;102762.41;2687891;88;21072;-68
2022/03/19 04:19:42;;;;;;;83.15;52.53;;;;;;;2.94;71.23;102756.61;2688336;87;21044;-68
2022/03/19 04:23:44;;;;;;;78.50;50.50;;;;;;;3.14;72.29;102760.80;2687881;87;21045;-68
2022/03/19 04:27:50;;;;;;;74.45;50.03;;;;;;;3.12;73.79;102756.00;2687781;88;21548;-68
2022/03/19 04:31:51;;;;;;;80.40;49.15;;;;;;;3.07;73.01;102749.92;2688099;88;21005;-69
2022/03/19 04:40:10;;;;;;;85.97;52.03;;;;;;;3.15;71.64;102745.47;2687694;88;21628;-67
2022/03/19 04:44:11;;;;;;;84.13;47.88;;;;;;;3.19;71.47;102739.28;2688079;88;21000;-68
2022/03/19 04:48:13;;;;;;;83.27;51.63;;;;;;;3.24;70.78;102743.15;2687993;87;21008;-68
2022/03/19 04:52:15;;;;;;;95.22;52.05;;;;;;;3.36;69.96;102739.53;2687433;88;21092;-68
2022/03/19 04:56:23;;;;;;;80.57;52.30;;;;;;;3.42;69.17;102740.77;2687737;87;21068;-68
2022/03/19 05:00:25;;;;;;;72.27;46.53;;;;;;;3.43;68.58;102745.13;2687658;88;21029;-68
2022/03/19 05:04:26;;;;;;;79.77;51.08;;;;;;;3.41;68.23;102743.83;2704397;87;21596;-68
2022/03/19 05:08:28;;;;;;;75.25;51.92;;;;;;;3.43;67.97;102747.77;2761928;86;20999;-69
2022/03/19 05:12:36;;;;;;;72.10;45.88;;;;;;;3.41;68.04;102745.60;2761675;86;21563;-67
2022/03/19 05:16:38;;;;;;;73.85;48.38;;;;;;;3.38;68.41;102745.64;2761682;86;21070;-68
2022/03/19 05:20:40;;;;;;;70.57;44.73;;;;;;;3.11;68.67;102742.42;2761678;86;21598;-68
2022/03/19 05:24:42;;;;;;;75.42;49.18;;;;;;;3.04;68.95;102741.61;2761942;86;20976;-68
2022/03/19 05:28:43;;;;;;;70.78;45.50;;;;;;;3.03;68.97;102744.28;2761729;86;21543;-69
2022/03/19 05:32:45;;;;;;;70.25;43.35;;;;;;;3.02;68.98;102739.91;2761774;86;20975;-68
2022/03/19 05:36:47;;;;;;;73.55;47.67;;;;;;;3.10;68.60;102748.14;2762028;86;21091;-68
2022/03/19 05:40:49;;;;;;;78.97;51.28;;;;;;;3.26;69.21;102758.04;2761441;86;21030;-67
2022/03/19 05:44:51;;;;;;;85.87;54.65;;;;;;;3.52;69.86;102755.53;2762158;86;20996;-68
2022/03/19 05:48:52;;;;;;;88.00;51.77;;;;;;;3.70;68.65;102756.19;2762364;86;21007;-68
2022/03/19 05:52:54;;;;;;;99.10;58.90;;;;;;;3.79;69.14;102758.71;2762358;86;21437;-69
2022/03/19 05:56:56;;;;;;;88.05;56.63;;;;;;;4.00;69.17;102756.67;2762500;86;21507;-68
2022/03/19 06:00:57;;;;;;;76.00;50.85;;;;;;;4.24;67.76;102762.03;2762365;86;21000;-68
2022/03/19 06:04:59;;;;;;;81.95;51.33;;;;;;;4.23;67.46;102760.28;2714718;86;21028;-70
2022/03/19 06:09:01;;;;;;;70.85;49.95;;;;;;;4.09;68.01;102766.20;2699409;87;21517;-70
2022/03/19 06:13:03;;;;;;;70.20;48.35;;;;;;;3.82;68.92;102773.15;2699076;88;21044;-70
2022/03/19 06:17:05;;;;;;;68.17;46.63;;;;;;;3.49;70.52;102776.63;2699001;88;21572;-74
2022/03/19 06:21:06;;;;;;;69.58;45.43;;;;;;;3.30;71.34;102774.67;2680474;87;21064;-73
2022/03/19 06:25:09;;;;;;;82.40;47.05;;;;;;;3.27;71.74;102778.20;2679651;88;21076;-74
2022/03/19 06:29:10;;;;;;;71.70;51.15;;;;;;;3.36;73.01;102784.27;2679801;88;21485;-74
2022/03/19 06:33:13;;;;;;;71.72;48.63;;;;;;;3.50;73.41;102794.16;2679846;88;21036;-73
2022/03/19 06:37:20;;;;;;;75.28;50.20;;;;;;;3.58;73.30;102791.44;2680161;88;21001;-74
2022/03/19 06:41:23;;;;;;;74.70;45.80;;;;;;;3.65;73.83;102797.07;2680174;87;21044;-73
2022/03/19 06:45:26;;;;;;;70.62;47.15;;;;;;;3.79;70.94;102790.73;2680771;88;20964;-70
2022/03/19 06:49:28;;;;;;;74.90;46.37;;;;;;;3.87;69.28;102792.84;2680631;88;21559;-69
2022/03/19 06:53:30;;;;;;;72.50;45.70;;;;;;;3.95;69.42;102796.23;2680565;88;21048;-71
2022/03/19 06:57:32;;;;;;;69.42;45.10;;;;;;;4.10;65.54;102800.41;2680634;88;21055;-69
2022/03/19 07:01:36;;;;;;;66.75;44.35;;;;;;;4.22;64.52;102796.72;2680571;88;21096;-69
2022/03/19 07:05:37;;;;;;;73.10;46.20;;;;;;;4.39;64.29;102793.84;2725471;87;21020;-69
2022/03/19 07:09:39;;;;;;;72.17;44.33;;;;;;;4.66;63.81;102798.24;2733827;87;21047;-69
2022/03/19 07:13:42;;;;;;;73.28;47.10;;;;;;;4.93;60.72;102795.16;2733686;87;21055;-70
2022/03/19 07:17:44;;;;;;;67.25;44.75;;;;;;;5.22;62.15;102791.13;2733773;87;21622;-69
2022/03/19 07:21:45;;;;;;;71.45;44.48;;;;;;;5.51;60.04;102797.59;2733740;87;21564;-69
2022/03/19 07:25:47;;;;;;;67.90;43.70;;;;;;;5.88;59.93;102803.43;2734010;87;21019;-68
2022/03/19 07:29:49;;;;;;;72.80;44.03;;;;;;;6.13;57.82;102806.44;2734081;87;21031;-69
2022/03/19 07:33:50;;;;;;;69.70;41.75;;;;;;;6.40;58.28;102800.08;2733780;87;21028;-69
2022/03/19 07:37:53;;;;;;;68.78;44.08;;;;;;;6.56;56.94;102804.53;2734052;87;21080;-69
2022/03/19 07:41:56;;;;;;;55.33;38.25;;;;;;;6.63;55.63;102809.69;2733914;87;21055;-70
2022/03/19 07:45:57;;;;;;;61.42;40.83;;;;;;;6.54;54.96;102811.63;2734367;87;21024;-69
2022/03/19 07:49:59;;;;;;;64.12;45.25;;;;;;;6.47;54.96;102813.14;2734169;87;21068;-69
2022/03/19 07:54:01;;;;;;;70.03;45.83;;;;;;;6.36;55.40;102817.36;2734224;87;21024;-69
2022/03/19 07:58:03;;;;;;;73.07;44.25;;;;;;;6.41;54.42;102811.06;2734081;87;21043;-69
2022/03/19 08:02:05;;;;;;;74.55;43.35;;;;;;;6.57;55.23;102817.31;2734112;87;21110;-69
2022/03/19 08:06:07;;;;;;;64.10;40.12;;;;;;;6.99;54.10;102810.52;2684832;88;21080;-69
2022/03/19 08:10:11;;;;;;;58.90;40.08;;;;;;;7.35;50.63;102814.00;2685181;88;21035;-69
2022/03/19 08:14:14;;;;;;;58.45;40.20;;;;;;;7.67;50.53;102806.92;2685161;88;21043;-69
2022/03/19 08:18:16;;;;;;;39.63;29.85;;;;;;;7.95;49.87;102808.27;2685309;88;21046;-69
2022/03/19 08:22:18;;;;;;;63.52;40.85;;;;;;;8.14;46.83;102805.94;2685243;88;21072;-68
2022/03/19 08:26:20;;;;;;;41.45;30.52;;;;;;;8.31;48.89;102803.21;2685685;88;21027;-69
2022/03/19 08:30:22;;;;;;;46.05;29.92;;;;;;;8.42;46.67;102802.86;2685405;88;21041;-69
2022/03/19 08:34:23;;;;;;;43.75;29.37;;;;;;;8.56;45.63;102803.77;2685533;88;21501;-69
2022/03/19 08:42:40;;;;;;;49.40;31.48;;;;;;;8.84;45.26;102792.20;2685621;87;21043;-69
2022/03/19 08:46:42;;;;;;;41.92;29.72;;;;;;;8.92;45.97;102785.31;2685993;88;21658;-69
2022/03/19 08:50:45;;;;;;;42.43;21.70;;;;;;;9.12;45.38;102788.60;2685843;87;21076;-69
2022/03/19 08:54:46;;;;;;;29.30;19.32;;;;;;;9.14;42.74;102778.79;2685832;88;21913;-70
2022/03/19 08:58:49;;;;;;;50.03;28.77;;;;;;;9.13;40.62;102770.41;2685674;88;34548;-69
2022/03/19 09:02:51;;;;;;;43.58;27.13;;;;;;;9.28;41.88;102784.47;2686160;85;21079;-69
2022/03/19 09:06:52;;;;;;;32.40;22.37;;;;;;;9.43;45.09;102780.83;2735213;87;21043;-69
2022/03/19 09:10:59;;;;;;;29.10;20.35;;;;;;;9.48;41.06;102774.91;2735072;87;21099;-70
2022/03/19 09:15:00;;;;;;;;;;;;;;;9.40;41.20;102780.50;2737490;87;21139;-70
2022/03/19 09:19:03;;;;;;;18.35;13.50;;;;;;;9.48;39.24;102779.33;2735192;87;20134;-69
2022/03/19 09:23:05;;;;;;;17.40;12.95;;;;;;;9.57;38.86;102778.53;2735020;87;21012;-69
2022/03/19 09:27:07;;;;;;;28.05;14.58;;;;;;;9.55;38.92;102781.70;2735407;87;21025;-69
2022/03/19 09:31:09;;;;;;;32.17;13.10;;;;;;;9.56;38.13;102778.13;2735105;87;21040;-69
2022/03/19 09:35:10;;;;;;;17.55;12.63;;;;;;;9.61;38.33;102775.75;2735091;87;21031;-69
2022/03/19 09:39:14;;;;;;;22.02;14.47;;;;;;;9.54;37.39;102770.67;2735091;87;21035;-69
2022/03/19 09:43:16;;;;;;;20.10;15.38;;;;;;;9.64;38.21;102776.98;2735026;87;21044;-69
2022/03/19 09:47:18;;;;;;;19.77;15.08;;;;;;;9.63;37.80;102769.46;2735297;87;20996;-68
2022/03/19 09:51:21;;;;;;;20.88;15.75;;;;;;;9.70;38.44;102771.42;2735075;87;21052;-70
2022/03/19 09:55:26;;;;;;;20.55;16.70;;;;;;;9.69;36.59;102763.05;2735126;87;21028;-69
2022/03/19 09:59:28;;;;;;;23.33;15.97;;;;;;;9.71;37.16;102766.03;2735642;87;21033;-69
2022/03/19 10:03:33;;;;;;;22.25;16.17;;;;;;;9.74;36.34;102770.86;2731281;87;21102;-69
2022/03/19 10:11:52;;;;;;;23.30;17.60;;;;;;;9.71;36.71;102778.47;2690562;88;21067;-70
2022/03/19 10:15:54;;;;;;;26.17;19.35;;;;;;;9.69;36.37;102774.53;2690358;88;21000;-69
2022/03/19 10:20:09;;;;;;;21.25;16.40;;;;;;;9.65;36.02;102773.41;2698064;88;21038;-69
2022/03/19 10:24:27;;;;;;;24.30;18.42;;;;;;;9.77;36.23;102770.25;2697864;88;21042;-69
2022/03/19 10:28:32;;;;;;;23.30;13.95;;;;;;;9.82;37.26;102772.27;2690530;88;21047;-69
2022/03/19 10:32:34;;;;;;;28.92;20.12;;;;;;;9.93;36.33;102764.34;2691439;86;21024;-69
2022/03/19 10:36:40;;;;;;;36.88;22.60;;;;;;;10.08;35.77;102766.84;2774540;85;21104;-69
2022/03/19 10:40:45;;;;;;;52.88;32.98;;;;;;;10.16;35.88;102759.44;2774862;85;21103;-68
2022/03/19 10:44:48;;;;;;;43.92;30.55;;;;;;;10.15;35.75;102755.91;2774660;85;21012;-69
2022/03/19 10:48:52;;;;;;;47.60;32.53;;;;;;;10.27;35.69;102765.66;2774866;85;21043;-70
2022/03/19 10:52:56;;;;;;;29.67;22.17;;;;;;;10.27;35.51;102758.52;2774762;85;21000;-68
2022/03/19 10:56:57;;;;;;;25.48;16.55;;;;;;;10.24;34.95;102758.66;2774853;85;21000;-69
2022/03/19 11:01:01;;;;;;;17.07;15.05;;;;;;;10.34;36.44;102763.13;2775071;85;21048;-69
2022/03/19 11:05:03;;;;;;;20.20;15.15;;;;;;;10.39;35.24;102757.62;2774889;85;21055;-70
2022/03/19 11:09:09;;;;;;;24.63;15.50;;;;;;;10.24;34.47;102760.46;2774648;85;21024;-69
2022/03/19 11:13:15;;;;;;;18.45;14.03;;;;;;;10.27;34.25;102762.99;2775303;85;21004;-69
2022/03/19 11:17:30;;;;;;;16.60;14.15;;;;;;;10.25;35.53;102752.88;2775204;85;21040;-69
2022/03/19 11:21:33;;;;;;;28.02;17.30;;;;;;;10.37;34.32;102738.20;2774980;85;21051;-69
2022/03/19 11:25:50;;;;;;;20.32;14.43;;;;;;;10.48;35.26;102743.11;2775130;85;21104;-69
2022/03/19 11:29:52;;;;;;;20.90;15.00;;;;;;;10.60;34.17;102729.25;2775498;85;21635;-69
2022/03/19 11:34:03;;;;;;;21.12;14.90;;;;;;;10.72;35.17;102721.23;2764299;85;21101;-69
2022/03/19 11:38:11;;;;;;;19.25;14.83;;;;;;;10.74;35.21;102725.14;2735502;87;21049;-69
2022/03/19 11:42:15;;;;;;;24.60;15.40;;;;;;;10.69;34.31;102722.22;2735596;87;21049;-70
2022/03/19 11:46:17;;;;;;;43.25;28.50;;;;;;;10.67;33.92;102720.09;2736286;87;21037;-70
2022/03/19 11:50:23;;;;;;;20.80;15.68;;;;;;;10.83;35.39;102708.30;2736392;87;20997;-69
2022/03/19 11:54:25;;;;;;;;;;;;;;;10.77;33.37;102713.91;2738601;87;21070;-70
2022/03/19 11:58:26;;;;;;;32.15;21.97;;;;;;;10.81;34.25;102702.66;2736475;87;20103;-69
2022/03/19 12:02:32;;;;;;;18.52;13.55;;;;;;;10.91;33.94;102697.30;2736544;87;21085;-69
2022/03/19 12:06:36;;;;;;;21.95;16.65;;;;;;;10.87;33.24;102690.39;2735804;87;21097;-69
2022/03/19 12:10:55;;;;;;;30.60;16.70;;;;;;;10.84;33.82;102687.87;2735981;87;21037;-69
2022/03/19 12:14:56;;;;;;;19.40;14.38;;;;;;;10.84;34.71;102688.72;2736070;87;21061;-69
2022/03/19 12:18:58;;;;;;;25.27;13.80;;;;;;;10.82;33.81;102691.92;2735729;87;21025;-68
2022/03/19 12:23:02;;;;;;;25.35;16.40;;;;;;;10.94;34.40;102679.86;2736293;87;21045;-69
2022/03/19 12:27:04;;;;;;;16.95;14.28;;;;;;;10.94;34.67;102693.66;2736338;87;21565;-69
2022/03/19 12:31:08;;;;;;;18.82;12.88;;;;;;;10.92;33.85;102683.06;2736121;87;21033;-68
2022/03/19 12:35:10;;;;;;;21.77;14.78;;;;;;;11.05;33.66;102686.51;2736014;86;21017;-69
2022/03/19 12:39:12;;;;;;;17.25;12.73;;;;;;;11.06;34.58;102681.58;2735937;87;21060;-69
2022/03/19 12:43:14;;;;;;;20.17;12.00;;;;;;;10.98;33.23;102684.59;2736141;87;21073;-69
2022/03/19 12:47:16;;;;;;;15.45;13.28;;;;;;;11.02;33.22;102680.84;2736062;87;21021;-68
2022/03/19 12:51:25;;;;;;;18.77;14.20;;;;;;;11.08;34.62;102677.04;2736018;87;21033;-69
2022/03/19 12:55:27;;;;;;;23.20;17.23;;;;;;;11.08;34.30;102683.70;2736169;86;21037;-69
2022/03/19 12:59:30;;;;;;;22.70;12.70;;;;;;;11.11;34.09;102680.89;2735877;86;21033;-68
2022/03/19 13:03:31;;;;;;;16.93;12.55;;;;;;;11.07;33.17;102673.98;2736021;86;21093;-68
2022/03/19 13:07:33;;;;;;;20.32;14.38;;;;;;;11.11;32.48;102676.89;2735960;86;21033;-69
2022/03/19 13:11:49;;;;;;;18.37;14.23;;;;;;;11.15;34.03;102675.81;2735852;87;21038;-69
2022/03/19 13:15:54;;;;;;;21.42;15.08;;;;;;;11.11;33.48;102671.56;2736028;87;21086;-69
2022/03/19 13:20:05;;;;;;;19.80;13.80;;;;;;;11.15;32.94;102670.48;2736169;87;21057;-69
2022/03/19 13:24:10;;;;;;;19.95;12.95;;;;;;;11.19;33.14;102671.22;2736026;87;21085;-69
2022/03/19 13:28:11;;;;;;;13.08;11.18;;;;;;;11.32;34.03;102675.50;2736164;86;21041;-68
2022/03/19 13:32:16;;;;;;;17.37;12.80;;;;;;;11.23;31.89;102666.13;2736160;87;21054;-69
2022/03/19 13:36:21;;;;;;;21.85;14.18;;;;;;;11.16;32.39;102660.22;2747225;86;21088;-70
2022/03/19 13:40:28;;;;;;;10.25;8.78;;;;;;;11.13;32.18;102662.58;2750616;86;20994;-68
2022/03/19 13:44:37;;;;;;;15.28;11.22;;;;;;;11.18;32.01;102643.70;2750545;86;21041;-72
2022/03/19 13:48:39;;;;;;;23.57;15.58;;;;;;;11.12;31.89;102636.00;2750661;85;21092;-71
2022/03/19 13:52:45;;;;;;;24.90;16.55;;;;;;;11.15;32.31;102657.16;2751853;86;21024;-71
2022/03/19 13:56:54;;;;;;;17.50;13.00;;;;;;;11.25;32.38;102649.16;2751527;86;21089;-70
2022/03/19 14:00:57;;;;;;;24.67;15.28;;;;;;;11.25;32.05;102643.83;2751622;86;21021;-70
2022/03/19 14:05:01;;;;;;;33.73;15.25;;;;;;;11.20;31.62;102651.62;2751637;86;21044;-70
2022/03/19 14:09:03;;;;;;;16.05;14.20;;;;;;;11.24;32.28;102641.22;2751311;86;21025;-70
2022/03/19 14:13:11;;;;;;;12.98;10.18;;;;;;;11.31;31.64;102642.68;2745368;86;21020;-71
2022/03/19 14:17:12;;;;;;;19.60;15.68;;;;;;;11.35;31.22;102645.59;2713507;85;21071;-71
2022/03/19 14:21:14;;;;;;;17.40;13.75;;;;;;;11.31;32.17;102648.46;2713588;87;21083;-71
2022/03/19 14:25:16;;;;;;;20.15;14.13;;;;;;;11.32;32.63;102647.52;2713411;87;21028;-71
2022/03/19 14:29:18;;;;;;;19.25;12.60;;;;;;;11.29;32.25;102645.40;2713580;86;21008;-70
2022/03/19 14:33:21;;;;;;;20.30;15.55;;;;;;;11.38;31.93;102648.09;2715554;86;21008;-70
2022/03/19 14:37:22;;;;;;;16.02;13.43;;;;;;;11.38;32.88;102643.22;2736607;86;21512;-70
2022/03/19 14:41:24;;;;;;;15.55;12.23;;;;;;;11.17;31.71;102635.31;2736048;87;20992;-70
2022/03/19 14:45:26;;;;;;;19.00;13.55;;;;;;;11.26;32.78;102635.34;2736021;85;21088;-71
2022/03/19 14:49:27;;;;;;;19.65;15.90;;;;;;;11.38;34.35;102632.11;2736182;87;21063;-70
2022/03/19 14:53:31;;;;;;;24.15;18.07;;;;;;;11.39;32.86;102628.51;2736325;87;21027;-73
2022/03/19 14:57:34;;;;;;;26.12;20.30;;;;;;;11.36;33.06;102639.77;2736564;85;21040;-71
2022/03/19 15:01:35;;;;;;;21.07;15.23;;;;;;;11.34;33.03;102629.66;2736007;85;21055;-71
2022/03/19 15:05:37;;;;;;;20.32;16.20;;;;;;;11.31;32.92;102635.14;2736136;85;21407;-71
2022/03/19 15:09:38;;;;;;;21.70;15.20;;;;;;;11.25;32.35;102639.83;2736664;85;21028;-70
2022/03/19 15:13:41;;;;;;;27.42;17.07;;;;;;;11.20;32.91;102633.86;2736478;85;21068;-70
2022/03/19 15:17:43;;;;;;;23.18;15.78;;;;;;;11.10;33.17;102621.89;2736341;85;21045;-72
2022/03/19 15:21:45;;;;;;;20.48;14.65;;;;;;;11.08;32.65;102624.62;2736511;85;21103;-70
2022/03/19 15:25:47;;;;;;;14.90;12.80;;;;;;;10.99;32.52;102621.91;2736325;85;21047;-70
2022/03/19 15:29:52;;;;;;;16.50;14.33;;;;;;;10.94;32.29;102609.28;2734754;85;21020;-74
2022/03/19 15:33:52;;;;;;;18.57;13.03;;;;;;;10.90;32.00;102613.03;2732872;87;21027;-71
2022/03/19 15:38:00;;;;;;;21.20;14.90;;;;;;;10.79;32.48;102618.85;2733079;85;21091;-71
2022/03/19 15:41:57;;;;;;;16.32;13.22;;;;;;;10.79;33.53;102625.96;2732242;87;21064;-74
2022/03/19 15:45:59;;;;;;;19.50;14.15;;;;;;;10.76;32.86;102628.31;2732860;87;21047;-73
2022/03/19 15:50:01;;;;;;;18.90;14.20;;;;;;;10.70;33.31;102632.11;2732924;85;21008;-73
2022/03/19 15:54:03;;;;;;;25.30;16.37;;;;;;;10.67;33.98;102628.71;2733323;87;21004;-72
2022/03/19 15:58:05;;;;;;;19.32;14.53;;;;;;;10.54;33.25;102631.94;2733150;87;21083;-74
2022/03/19 16:02:07;;;;;;;24.27;16.07;;;;;;;10.52;33.32;102624.50;2733024;85;21032;-73
2022/03/19 16:06:09;;;;;;;21.25;15.53;;;;;;;10.47;33.99;102625.63;2733074;87;21051;-73
2022/03/19 16:10:11;;;;;;;19.02;15.03;;;;;;;10.40;34.28;102631.19;2733161;85;21051;-75
2022/03/19 16:14:13;;;;;;;22.45;16.17;;;;;;;10.32;33.98;102637.74;2744383;85;21047;-77
2022/03/19 16:18:14;;;;;;;43.00;17.75;;;;;;;10.24;34.10;102634.95;2781522;85;21095;-76
2022/03/19 16:22:16;;;;;;;26.55;16.25;;;;;;;10.15;34.23;102634.89;2781800;85;21035;-77
2022/03/19 16:26:18;;;;;;;28.47;18.32;;;;;;;10.10;35.54;102640.88;2781993;85;21016;-76
2022/03/19 16:30:23;;;;;;;20.12;15.48;;;;;;;9.93;36.59;102642.05;2784194;85;21055;-74
2022/03/19 16:34:26;;;;;;;38.53;19.80;;;;;;;9.79;36.99;102642.13;2783942;85;21027;-77
2022/03/19 16:38:28;;;;;;;27.00;17.20;;;;;;;9.64;37.52;102645.44;2783189;85;21047;-76
2022/03/19 16:42:29;;;;;;;23.25;17.82;;;;;;;9.48;38.16;102646.49;2782996;85;21019;-73
2022/03/19 16:46:31;;;;;;;29.90;18.73;;;;;;;9.34;38.34;102655.02;2743448;85;21100;-73
2022/03/19 16:50:33;;;;;;;27.80;19.73;;;;;;;9.22;38.19;102654.55;2733863;85;21044;-73
2022/03/19 16:54:35;;;;;;;25.95;20.43;;;;;;;9.13;38.37;102652.25;2733233;87;21060;-73
2022/03/19 16:58:37;;;;;;;35.98;22.62;;;;;;;8.98;39.16;102651.05;2732087;85;21004;-77
2022/03/19 17:02:39;;;;;;;29.25;21.25;;;;;;;8.68;41.21;102658.75;2732626;85;21003;-77
2022/03/19 17:06:40;;;;;;;33.78;23.12;;;;;;;8.36;41.90;102662.03;2733707;87;21540;-76
2022/03/19 17:10:42;;;;;;;29.12;21.07;;;;;;;8.07;42.58;102661.25;2733093;85;20993;-78
2022/03/19 17:14:43;;;;;;;27.90;21.77;;;;;;;7.77;42.74;102671.92;2732649;85;21013;-75
2022/03/19 17:18:45;;;;;;;29.85;21.73;;;;;;;7.62;43.40;102675.05;2733129;85;21007;-70
2022/03/19 17:22:47;;;;;;;30.60;22.70;;;;;;;7.41;44.05;102680.08;2733471;85;21020;-69
2022/03/19 17:26:48;;;;;;;28.40;23.10;;;;;;;7.22;44.20;102681.95;2734120;85;21039;-70
2022/03/19 17:30:50;;;;;;;35.73;25.05;;;;;;;7.10;43.97;102684.50;2733702;85;21032;-70
2022/03/19 17:34:52;;;;;;;40.80;25.40;;;;;;;6.98;44.04;102683.08;2735525;86;21907;-71
2022/03/19 17:38:53;;;;;;;34.75;24.75;;;;;;;6.90;44.34;102685.09;2749050;86;21096;-74
2022/03/19 17:42:56;;;;;;;58.15;33.23;;;;;;;6.82;44.48;102689.70;2748596;85;21003;-73
2022/03/19 17:46:58;;;;;;;46.37;31.65;;;;;;;6.67;44.23;102689.20;2748904;86;21020;-74
2022/03/19 17:51:00;;;;;;;48.95;32.67;;;;;;;6.64;44.17;102691.09;2748791;86;21083;-73
2022/03/19 17:55:04;;;;;;;41.48;26.45;;;;;;;6.60;44.49;102695.58;2749339;85;20992;-73
2022/03/19 17:59:06;;;;;;;36.80;28.17;;;;;;;6.51;44.31;102694.52;2748859;85;21039;-74
2022/03/19 18:03:07;;;;;;;39.65;26.77;;;;;;;6.46;44.41;102698.59;2736991;84;21098;-73
2022/03/19 18:07:09;;;;;;;33.15;26.45;;;;;;;6.43;44.17;102698.67;2748823;86;21669;-74
2022/03/19 18:11:12;;;;;;;38.30;24.63;;;;;;;6.38;44.41;102697.46;2698998;87;21040;-73
2022/03/19 18:15:14;;;;;;;43.92;27.93;;;;;;;6.36;44.31;102697.95;2748958;86;21008;-74
2022/03/19 18:19:16;;;;;;;52.35;30.88;;;;;;;6.36;44.15;102693.11;2748930;86;21051;-72
2022/03/19 18:23:18;;;;;;;45.28;29.98;;;;;;;6.33;44.04;102695.39;2698814;87;21080;-79
2022/03/19 18:27:19;;;;;;;39.50;25.68;;;;;;;6.27;44.19;102694.20;2748526;86;21032;-78
2022/03/19 18:31:21;;;;;;;39.78;26.15;;;;;;;6.25;44.15;102698.67;2748563;86;21472;-79
2022/03/19 18:35:23;;;;;;;47.48;31.23;;;;;;;6.22;44.20;102694.78;2702125;87;21118;-74
2022/03/19 18:39:24;;;;;;;47.62;28.07;;;;;;;6.20;44.14;102696.59;2760871;86;21075;-73
2022/03/19 18:43:26;;;;;;;42.13;26.68;;;;;;;6.18;44.39;102701.06;2760980;86;21492;-72